createdAt,value
2023-03-17T00:01:56.001Z,8.62
2023-03-17T00:04:25.087Z,8.60
2023-03-17T00:06:52.959Z,8.58
2023-03-17T00:09:20.638Z,8.55
2023-03-17T00:11:47.887Z,8.53
2023-03-17T00:14:14.669Z,8.50
2023-03-17T00:16:44.453Z,8.47
2023-03-17T00:19:21.869Z,8.43
2023-03-17T00:21:49.529Z,8.40
2023-03-17T00:24:16.372Z,8.39
2023-03-17T00:26:43.776Z,8.37
2023-03-17T00:29:10.650Z,8.35
2023-03-17T00:31:39.215Z,8.33
2023-03-17T00:34:08.033Z,8.30
2023-03-17T00:36:35.593Z,8.27
2023-03-17T00:39:02.234Z,8.26
2023-03-17T00:41:29.578Z,8.25
2023-03-17T00:43:57.535Z,8.24
2023-03-17T00:46:28.907Z,8.21
2023-03-17T00:48:55.683Z,8.20
2023-03-17T00:51:23.407Z,8.19
2023-03-17T00:53:50.914Z,8.17
2023-03-17T00:56:20.689Z,8.16
2023-03-17T00:58:48.515Z,8.14
2023-03-17T01:01:15.987Z,8.11
2023-03-17T01:03:42.699Z,8.10
2023-03-17T01:06:12.529Z,8.08
2023-03-17T01:08:40.954Z,8.07
2023-03-17T01:11:14.778Z,8.04
2023-03-17T01:13:41.944Z,8.02
2023-03-17T01:19:05.847Z,8.00
2023-03-17T01:21:32.670Z,7.97
2023-03-17T01:24:00.522Z,7.98
2023-03-17T01:26:27.426Z,8.00
2023-03-17T01:28:54.924Z,7.99
2023-03-17T01:31:23.110Z,7.99
2023-03-17T01:33:49.876Z,8.01
2023-03-17T01:36:17.852Z,8.02
2023-03-17T01:38:48.271Z,8.02
2023-03-17T01:41:14.924Z,8.01
2023-03-17T01:43:41.719Z,8.01
2023-03-17T01:46:17.184Z,7.99
2023-03-17T01:48:55.835Z,7.98
2023-03-17T01:51:32.127Z,7.97
2023-03-17T01:54:01.560Z,7.95
2023-03-17T01:56:29.018Z,7.94
2023-03-17T01:58:58.316Z,7.91
2023-03-17T02:01:30.742Z,7.89
2023-03-17T02:03:58.588Z,7.88
2023-03-17T02:06:26.367Z,7.87
2023-03-17T02:08:53.817Z,7.85
2023-03-17T02:11:21.222Z,7.81
2023-03-17T02:13:48.098Z,7.80
2023-03-17T02:16:16.428Z,7.77
2023-03-17T02:18:44.093Z,7.75
2023-03-17T02:21:31.906Z,7.73
2023-03-17T02:24:02.496Z,7.72
2023-03-17T02:26:33.172Z,7.69
2023-03-17T02:28:59.753Z,7.68
2023-03-17T02:31:27.488Z,7.66
2023-03-17T02:33:54.695Z,7.64
2023-03-17T02:36:22.068Z,7.62
2023-03-17T02:38:49.171Z,7.61
2023-03-17T02:41:15.874Z,7.60
2023-03-17T02:43:42.960Z,7.61
2023-03-17T02:46:09.840Z,7.61
2023-03-17T02:48:37.499Z,7.59
2023-03-17T02:51:04.922Z,7.58
2023-03-17T02:53:31.588Z,7.58
2023-03-17T02:55:58.503Z,7.57
2023-03-17T02:58:25.187Z,7.57
2023-03-17T03:00:51.841Z,7.57
2023-03-17T03:03:18.510Z,7.57
2023-03-17T03:05:45.576Z,7.57
2023-03-17T03:08:12.292Z,7.58
2023-03-17T03:13:33.352Z,7.59
2023-03-17T03:16:00.546Z,7.60
2023-03-17T03:18:27.340Z,7.59
2023-03-17T03:23:47.960Z,7.60
2023-03-17T03:26:14.701Z,7.61
2023-03-17T03:28:41.708Z,7.62
2023-03-17T03:31:08.740Z,7.61
2023-03-17T03:33:35.671Z,7.62
2023-03-17T03:36:02.548Z,7.63
2023-03-17T03:38:29.423Z,7.62
2023-03-17T03:40:56.146Z,7.63
2023-03-17T03:43:24.066Z,7.66
2023-03-17T03:45:51.926Z,7.66
2023-03-17T03:48:19.131Z,7.68
2023-03-17T03:50:50.820Z,7.69
2023-03-17T03:53:17.635Z,7.72
2023-03-17T03:55:44.176Z,7.72
2023-03-17T03:58:11.405Z,7.72
2023-03-17T04:00:38.004Z,7.73
2023-03-17T04:03:04.655Z,7.73
2023-03-17T04:05:31.242Z,7.74
2023-03-17T04:07:57.673Z,7.75
2023-03-17T04:10:24.204Z,7.76
2023-03-17T04:12:51.220Z,7.75
2023-03-17T04:15:19.880Z,7.75
2023-03-17T04:17:47.556Z,7.75
2023-03-17T04:20:16.011Z,7.74
2023-03-17T04:22:43.056Z,7.74
2023-03-17T04:25:11.580Z,7.74
2023-03-17T04:27:38.303Z,7.75
2023-03-17T04:30:05.852Z,7.75
2023-03-17T04:32:32.508Z,7.74
2023-03-17T04:34:59.192Z,7.76
2023-03-17T04:37:26.443Z,7.75
2023-03-17T04:39:53.411Z,7.77
2023-03-17T04:42:19.982Z,7.75
2023-03-17T04:44:47.114Z,7.76
2023-03-17T04:47:13.708Z,7.77
2023-03-17T04:49:40.501Z,7.77
2023-03-17T04:52:07.527Z,7.76
2023-03-17T04:54:34.184Z,7.78
2023-03-17T04:57:00.750Z,7.81
2023-03-17T04:59:27.346Z,7.80
2023-03-17T05:01:54.121Z,7.82
2023-03-17T05:04:31.259Z,7.80
2023-03-17T05:06:58.482Z,7.81
2023-03-17T05:09:26.711Z,7.82
2023-03-17T05:11:53.236Z,7.81
2023-03-17T05:14:20.198Z,7.82
2023-03-17T05:16:48.439Z,7.82
2023-03-17T05:19:15.423Z,7.81
2023-03-17T05:21:42.688Z,7.82
2023-03-17T05:24:09.578Z,7.86
2023-03-17T05:26:36.424Z,7.86
2023-03-17T05:29:03.024Z,7.86
2023-03-17T05:31:31.217Z,7.87
2023-03-17T05:33:58.825Z,7.85
2023-03-17T05:36:25.343Z,7.86
2023-03-17T05:38:52.331Z,7.87
2023-03-17T05:41:19.090Z,7.86
2023-03-17T05:43:46.143Z,7.86
2023-03-17T05:46:13.125Z,7.85
2023-03-17T05:48:39.619Z,7.84
2023-03-17T05:51:06.383Z,7.85
2023-03-17T05:53:33.111Z,7.84
2023-03-17T05:55:59.609Z,7.84
2023-03-17T05:58:26.702Z,7.83
2023-03-17T06:00:53.666Z,7.83
2023-03-17T06:03:21.481Z,7.84
2023-03-17T06:05:48.450Z,7.85
2023-03-17T06:08:15.296Z,7.84
2023-03-17T06:10:43.135Z,7.85
2023-03-17T06:13:09.771Z,7.86
2023-03-17T06:15:36.936Z,7.87
2023-03-17T06:18:05.211Z,7.88
2023-03-17T06:20:38.133Z,7.90
2023-03-17T06:23:06.020Z,7.90
2023-03-17T06:25:35.577Z,7.90
2023-03-17T06:28:04.029Z,7.92
2023-03-17T06:30:33.181Z,7.91
2023-03-17T06:33:00.515Z,7.93
2023-03-17T06:35:27.587Z,7.93
2023-03-17T06:37:54.789Z,7.91
2023-03-17T06:40:21.434Z,7.94
2023-03-17T06:42:48.526Z,7.90
2023-03-17T06:45:16.069Z,7.91
2023-03-17T06:47:42.797Z,7.92
2023-03-17T06:50:11.564Z,7.92
2023-03-17T06:52:39.730Z,7.94
2023-03-17T06:55:07.810Z,7.95
2023-03-17T06:57:35.152Z,7.97
2023-03-17T07:00:01.935Z,8.00
2023-03-17T07:02:28.738Z,8.01
2023-03-17T07:04:57.963Z,8.05
2023-03-17T07:07:25.189Z,8.07
2023-03-17T07:09:52.792Z,8.09
2023-03-17T07:12:20.152Z,8.14
2023-03-17T07:14:46.869Z,8.17
2023-03-17T07:17:14.703Z,8.21
2023-03-17T07:19:42.372Z,8.24
2023-03-17T07:22:12.158Z,8.27
2023-03-17T07:24:39.788Z,8.30
2023-03-17T07:27:06.379Z,8.34
2023-03-17T07:29:34.090Z,8.37
2023-03-17T07:32:01.485Z,8.42
2023-03-17T07:34:28.416Z,8.47
2023-03-17T07:36:55.355Z,8.54
2023-03-17T07:39:22.000Z,8.64
2023-03-17T07:41:52.976Z,8.75
2023-03-17T07:44:19.810Z,8.86
2023-03-17T07:46:46.922Z,8.99
2023-03-17T07:49:14.057Z,9.14
2023-03-17T07:51:43.324Z,9.24
2023-03-17T07:54:14.819Z,9.36
2023-03-17T07:56:42.509Z,9.45
2023-03-17T07:59:11.067Z,9.52
2023-03-17T08:01:38.418Z,9.65
2023-03-17T08:04:05.919Z,9.73
2023-03-17T08:06:32.667Z,9.81
2023-03-17T08:08:59.731Z,9.86
2023-03-17T08:11:29.240Z,9.92
2023-03-17T08:13:56.137Z,10.03
2023-03-17T08:16:23.216Z,10.13
2023-03-17T08:18:50.372Z,10.22
2023-03-17T08:21:17.737Z,10.28
2023-03-17T08:23:44.632Z,10.39
2023-03-17T08:26:11.396Z,10.51
2023-03-17T08:28:38.293Z,10.60
2023-03-17T08:31:14.410Z,10.66
2023-03-17T08:33:42.551Z,10.74
2023-03-17T08:36:11.320Z,10.85
2023-03-17T08:38:39.611Z,10.93
2023-03-17T08:41:09.115Z,11.01
2023-03-17T08:43:37.421Z,11.10
2023-03-17T08:49:03.316Z,11.28
2023-03-17T08:52:02.935Z,11.39
2023-03-17T08:54:29.640Z,11.47
2023-03-17T08:56:57.641Z,11.49
2023-03-17T08:59:24.233Z,11.58
2023-03-17T09:03:28.630Z,11.72
2023-03-17T09:06:33.392Z,11.87
2023-03-17T09:09:00.461Z,11.91
2023-03-17T09:14:24.917Z,11.96
2023-03-17T09:16:52.279Z,12.03
2023-03-17T09:19:26.184Z,12.11
2023-03-17T09:21:58.954Z,12.20
2023-03-17T09:24:29.263Z,12.25
2023-03-17T09:27:00.103Z,12.33
2023-03-17T09:29:27.304Z,12.40
2023-03-17T09:31:57.020Z,12.46
2023-03-17T09:34:25.179Z,12.51
2023-03-17T09:36:53.991Z,12.61
2023-03-17T09:39:24.163Z,12.59
2023-03-17T09:42:06.717Z,12.71
2023-03-17T09:44:58.081Z,12.75
2023-03-17T09:47:43.056Z,12.87
2023-03-17T09:50:15.972Z,12.90
2023-03-17T09:52:43.238Z,12.96
2023-03-17T09:55:25.270Z,13.02
2023-03-17T09:57:54.356Z,13.10
2023-03-17T10:00:26.765Z,13.24
2023-03-17T10:02:55.040Z,13.28
2023-03-17T10:05:31.548Z,13.30
2023-03-17T10:08:30.063Z,13.44
2023-03-17T10:11:35.729Z,13.51
2023-03-17T10:14:05.361Z,13.57
2023-03-17T10:16:50.961Z,13.69
2023-03-17T10:19:32.666Z,13.71
2023-03-17T10:22:22.046Z,13.73
2023-03-17T10:24:54.892Z,13.72
2023-03-17T10:27:21.882Z,13.77
2023-03-17T10:29:48.869Z,13.80
2023-03-17T10:32:16.120Z,13.81
2023-03-17T10:34:43.851Z,13.90
2023-03-17T10:37:23.346Z,13.90
2023-03-17T10:39:56.259Z,13.98
2023-03-17T10:42:30.280Z,14.06
2023-03-17T10:45:01.979Z,14.08
2023-03-17T10:47:38.429Z,14.14
2023-03-17T10:50:25.389Z,14.19
2023-03-17T10:53:00.755Z,14.25
2023-03-17T10:58:43.556Z,14.47
2023-03-17T11:01:20.200Z,14.57
2023-03-17T11:03:47.712Z,14.62
2023-03-17T11:06:19.376Z,14.78
2023-03-17T11:08:53.756Z,14.81
2023-03-17T11:11:26.310Z,14.94
2023-03-17T11:14:16.990Z,15.12
2023-03-17T11:16:57.595Z,15.20
2023-03-17T11:19:43.590Z,15.22
2023-03-17T11:22:15.120Z,15.26
2023-03-17T11:25:06.429Z,15.35
2023-03-17T11:27:36.139Z,15.42
2023-03-17T11:30:28.159Z,15.51
2023-03-17T11:33:11.162Z,15.55
2023-03-17T11:36:10.848Z,15.67
2023-03-17T11:39:00.593Z,15.74
2023-03-17T11:41:58.450Z,15.82
2023-03-17T11:44:56.795Z,15.85
2023-03-17T11:47:51.374Z,15.93
2023-03-17T11:53:57.812Z,16.14
2023-03-17T11:56:37.082Z,16.10
2023-03-17T11:59:11.973Z,16.14
2023-03-17T12:04:58.670Z,16.21
2023-03-17T12:07:31.609Z,16.24
2023-03-17T12:10:12.658Z,16.31
2023-03-17T12:12:47.405Z,16.37
2023-03-17T12:15:29.792Z,16.46
2023-03-17T12:18:04.413Z,16.51
2023-03-17T12:23:52.861Z,16.57
2023-03-17T12:26:41.440Z,16.55
2023-03-17T12:29:19.318Z,16.55
2023-03-17T12:31:52.555Z,16.62
2023-03-17T12:34:28.694Z,16.70
2023-03-17T12:36:55.738Z,16.74
2023-03-17T12:39:33.631Z,16.77
2023-03-17T12:42:22.849Z,16.84
2023-03-17T12:45:27.531Z,16.91
2023-03-17T12:48:21.956Z,16.95
2023-03-17T12:51:17.642Z,17.03
2023-03-17T12:53:49.747Z,17.09
2023-03-17T12:56:30.468Z,17.07
2023-03-17T12:59:04.860Z,17.06
2023-03-17T13:01:38.970Z,17.10
2023-03-17T13:04:18.195Z,17.12
2023-03-17T13:06:48.302Z,17.15
2023-03-17T13:09:33.196Z,17.18
2023-03-17T13:12:01.848Z,17.23
2023-03-17T13:14:45.877Z,17.25
2023-03-17T13:17:25.928Z,17.34
2023-03-17T13:20:15.112Z,17.30
2023-03-17T13:23:10.357Z,17.32
2023-03-17T13:25:42.969Z,17.33
2023-03-17T13:28:18.302Z,17.33
2023-03-17T13:30:59.743Z,17.35
2023-03-17T13:33:32.910Z,17.38
2023-03-17T13:36:26.677Z,17.44
2023-03-17T13:39:18.845Z,17.47
2023-03-17T13:42:05.553Z,17.40
2023-03-17T13:45:06.565Z,17.42
2023-03-17T13:47:36.165Z,17.44
2023-03-17T13:50:16.327Z,17.51
2023-03-17T13:52:47.340Z,17.45
2023-03-17T13:55:23.419Z,17.40
2023-03-17T13:58:17.970Z,17.46
2023-03-17T14:00:53.424Z,17.46
2023-03-17T14:03:34.166Z,17.50
2023-03-17T14:06:04.870Z,17.51
2023-03-17T14:08:36.394Z,17.55
2023-03-17T14:20:53.312Z,17.61
2023-03-17T14:23:21.426Z,17.59
2023-03-17T14:25:49.330Z,17.56
2023-03-17T14:28:17.831Z,17.56
2023-03-17T14:30:55.636Z,17.49
2023-03-17T14:33:41.277Z,17.53
2023-03-17T14:36:14.253Z,17.58
2023-03-17T14:38:49.268Z,17.60
2023-03-17T14:41:27.531Z,17.61
2023-03-17T14:43:58.520Z,17.66
2023-03-17T14:46:27.585Z,17.67
2023-03-17T14:49:00.962Z,17.68
2023-03-17T14:51:32.775Z,17.73
2023-03-17T14:54:01.330Z,17.74
2023-03-17T14:56:41.028Z,17.76
2023-03-17T14:59:16.060Z,17.76
2023-03-17T15:01:47.553Z,17.77
2023-03-17T15:04:25.106Z,17.77
2023-03-17T15:06:59.438Z,17.69
2023-03-17T15:09:32.034Z,17.77
2023-03-17T15:12:05.194Z,17.73
2023-03-17T15:14:34.193Z,17.71
2023-03-17T15:17:06.481Z,17.71
2023-03-17T15:19:43.504Z,17.73
2023-03-17T15:22:29.746Z,17.72
2023-03-17T15:25:03.788Z,17.69
2023-03-17T15:27:31.765Z,17.75
2023-03-17T15:29:58.697Z,17.76
2023-03-17T15:32:26.930Z,17.75
2023-03-17T15:34:57.088Z,17.77
2023-03-17T15:37:26.786Z,17.79
2023-03-17T15:39:55.201Z,17.81
2023-03-17T15:42:26.572Z,17.79
2023-03-17T15:44:53.748Z,17.80
2023-03-17T15:47:22.828Z,17.79
2023-03-17T15:49:51.172Z,17.82
2023-03-17T15:52:26.837Z,17.79
2023-03-17T15:54:58.215Z,17.80
2023-03-17T15:57:26.319Z,17.80
2023-03-17T15:59:53.281Z,17.82
2023-03-17T16:05:21.200Z,17.78
2023-03-17T16:07:48.650Z,17.77
2023-03-17T16:10:18.466Z,17.77
2023-03-17T16:12:45.279Z,17.76
2023-03-17T16:15:23.005Z,17.74
2023-03-17T16:17:54.380Z,17.70
2023-03-17T16:20:27.498Z,17.69
2023-03-17T16:22:58.651Z,17.68
2023-03-17T16:25:29.391Z,17.65
2023-03-17T16:27:58.020Z,17.63
2023-03-17T16:30:27.351Z,17.60
2023-03-17T16:32:55.166Z,17.60
2023-03-17T16:35:25.646Z,17.56
2023-03-17T16:37:54.274Z,17.56
2023-03-17T16:43:30.065Z,17.52
2023-03-17T16:46:02.568Z,17.50
2023-03-17T16:48:29.401Z,17.49
2023-03-17T16:53:51.458Z,17.43
2023-03-17T16:56:21.412Z,17.39
2023-03-17T16:58:49.291Z,17.38
2023-03-17T17:01:19.532Z,17.36
2023-03-17T17:03:46.825Z,17.34
2023-03-17T17:06:19.909Z,17.33
2023-03-17T17:08:48.223Z,17.30
2023-03-17T17:14:10.770Z,17.28
2023-03-17T17:16:40.020Z,17.25
2023-03-17T17:19:14.591Z,17.23
2023-03-17T17:21:41.216Z,17.21
2023-03-17T17:24:11.413Z,17.19
2023-03-17T17:26:38.966Z,17.17
2023-03-17T17:29:05.894Z,17.14
2023-03-17T17:31:32.450Z,17.12
2023-03-17T17:33:59.415Z,17.08
2023-03-17T17:36:26.839Z,17.06
2023-03-17T17:38:53.535Z,17.03
2023-03-17T17:41:22.049Z,17.01
2023-03-17T17:43:50.091Z,16.97
2023-03-17T17:46:22.443Z,16.96
2023-03-17T17:48:49.711Z,16.94
2023-03-17T17:51:16.477Z,16.92
2023-03-17T17:53:43.370Z,16.89
2023-03-17T17:56:17.860Z,16.86
2023-03-17T17:58:45.347Z,16.81
2023-03-17T18:01:14.010Z,16.77
2023-03-17T18:03:42.792Z,16.75
2023-03-17T18:06:09.901Z,16.72
2023-03-17T18:08:36.906Z,16.71
2023-03-17T18:11:03.650Z,16.68
2023-03-17T18:13:30.445Z,16.65
2023-03-17T18:15:57.303Z,16.62
2023-03-17T18:18:23.931Z,16.58
2023-03-17T18:20:50.983Z,16.57
2023-03-17T18:23:17.805Z,16.56
2023-03-17T18:25:44.311Z,16.55
2023-03-17T18:28:11.651Z,16.52
2023-03-17T18:30:40.916Z,16.50
2023-03-17T18:33:15.142Z,16.49
2023-03-17T18:35:43.751Z,16.47
2023-03-17T18:38:10.282Z,16.47
2023-03-17T18:40:37.570Z,16.46
2023-03-17T18:43:04.963Z,16.42
2023-03-17T18:45:31.601Z,16.43
2023-03-17T18:47:58.330Z,16.44
2023-03-17T18:50:24.984Z,16.43
2023-03-17T18:52:51.643Z,16.42
2023-03-17T18:55:18.516Z,16.39
2023-03-17T18:57:46.574Z,16.41
2023-03-17T19:00:16.521Z,16.39
2023-03-17T19:02:43.142Z,16.38
2023-03-17T19:05:10.550Z,16.36
2023-03-17T19:07:40.135Z,16.34
2023-03-17T19:10:08.073Z,16.32
2023-03-17T19:12:34.682Z,16.31
2023-03-17T19:15:01.912Z,16.32
2023-03-17T19:17:28.583Z,16.31
2023-03-17T19:19:55.322Z,16.30
2023-03-17T19:22:22.100Z,16.29
2023-03-17T19:24:50.296Z,16.28
2023-03-17T19:27:17.908Z,16.25
2023-03-17T19:29:45.165Z,16.25
2023-03-17T19:32:12.052Z,16.20
2023-03-17T19:34:38.669Z,16.17
2023-03-17T19:37:05.701Z,16.14
2023-03-17T19:39:33.613Z,16.12
2023-03-17T19:42:00.210Z,16.05
2023-03-17T19:44:27.467Z,16.04
2023-03-17T19:46:54.022Z,16.04
2023-03-17T19:49:21.293Z,16.01
2023-03-17T19:51:49.335Z,15.95
2023-03-17T19:54:16.545Z,15.94
2023-03-17T19:56:43.176Z,15.88
2023-03-17T19:59:09.728Z,15.86
2023-03-17T20:01:38.052Z,15.85
2023-03-17T20:04:06.987Z,15.83
2023-03-17T20:06:34.742Z,15.82
2023-03-17T20:09:04.191Z,15.80
2023-03-17T20:11:34.040Z,15.81
2023-03-17T20:14:04.726Z,15.80
2023-03-17T20:16:33.819Z,15.77
2023-03-17T20:19:01.257Z,15.77
2023-03-17T20:21:27.930Z,15.75
2023-03-17T20:23:54.776Z,15.75
2023-03-17T20:26:21.394Z,15.74
2023-03-17T20:28:47.977Z,15.76
2023-03-17T20:31:14.696Z,15.71
2023-03-17T20:33:42.219Z,15.74
2023-03-17T20:36:09.383Z,15.77
2023-03-17T20:38:39.045Z,15.78
2023-03-17T20:41:07.679Z,15.80
2023-03-17T20:43:36.490Z,15.84
2023-03-17T20:46:09.289Z,15.83
2023-03-17T20:48:37.350Z,15.79
2023-03-17T20:51:06.422Z,15.77
2023-03-17T20:53:34.375Z,15.79
2023-03-17T20:56:01.017Z,15.79
2023-03-17T20:58:27.811Z,15.78
2023-03-17T21:00:55.392Z,15.76
2023-03-17T21:03:22.264Z,15.75
2023-03-17T21:05:49.128Z,15.73
2023-03-17T21:08:16.612Z,15.67
2023-03-17T21:10:43.198Z,15.58
2023-03-17T21:13:10.218Z,15.48
2023-03-17T21:15:36.782Z,15.40
2023-03-17T21:18:03.734Z,15.31
2023-03-17T21:20:30.687Z,15.22
2023-03-17T21:22:57.958Z,15.13
2023-03-17T21:25:24.815Z,15.07
2023-03-17T21:27:52.261Z,14.99
2023-03-17T21:30:19.217Z,14.94
2023-03-17T21:32:45.900Z,14.88
2023-03-17T21:35:12.786Z,14.83
2023-03-17T21:37:39.379Z,14.78
2023-03-17T21:40:07.046Z,14.73
2023-03-17T21:42:34.262Z,14.69
2023-03-17T21:45:01.040Z,14.63
2023-03-17T21:47:29.380Z,14.56
2023-03-17T21:49:56.631Z,14.53
2023-03-17T21:52:23.505Z,14.47
2023-03-17T21:54:51.027Z,14.43
2023-03-17T21:57:18.247Z,14.42
2023-03-17T21:59:45.685Z,14.36
2023-03-17T22:02:12.805Z,14.32
2023-03-17T22:04:41.652Z,14.29
2023-03-17T22:07:08.903Z,14.26
2023-03-17T22:09:36.127Z,14.21
2023-03-17T22:12:03.769Z,14.17
2023-03-17T22:14:31.351Z,14.15
2023-03-17T22:16:57.903Z,14.12
2023-03-17T22:19:24.865Z,14.09
2023-03-17T22:21:51.813Z,14.06
2023-03-17T22:24:19.115Z,14.05
2023-03-17T22:26:46.621Z,14.01
2023-03-17T22:29:14.039Z,13.99
2023-03-17T22:31:41.313Z,13.96
2023-03-17T22:34:09.916Z,13.91
2023-03-17T22:36:37.378Z,13.87
2023-03-17T22:39:06.909Z,13.84
2023-03-17T22:41:33.867Z,13.81
2023-03-17T22:44:00.566Z,13.79
2023-03-17T22:46:27.596Z,13.76
2023-03-17T22:48:54.275Z,13.73
2023-03-17T22:51:23.904Z,13.72
2023-03-17T22:53:51.862Z,13.70
2023-03-17T22:56:19.734Z,13.66
2023-03-17T22:58:47.407Z,13.63
2023-03-17T23:01:16.316Z,13.60
2023-03-17T23:03:43.935Z,13.57
2023-03-17T23:06:11.411Z,13.54
2023-03-17T23:08:39.669Z,13.53
2023-03-17T23:11:11.839Z,13.51
2023-03-17T23:13:41.646Z,13.49
2023-03-17T23:16:09.497Z,13.46
2023-03-17T23:18:36.104Z,13.44
2023-03-17T23:21:04.269Z,13.42
2023-03-17T23:23:31.494Z,13.40
2023-03-17T23:25:58.136Z,13.35
2023-03-17T23:28:25.036Z,13.32
2023-03-17T23:30:52.340Z,13.27
2023-03-17T23:33:21.602Z,13.24
2023-03-17T23:35:50.376Z,13.20
2023-03-17T23:38:21.915Z,13.17
2023-03-17T23:40:49.715Z,13.16
2023-03-17T23:43:16.533Z,13.14
2023-03-17T23:45:43.682Z,13.12
2023-03-17T23:48:11.153Z,13.11
2023-03-17T23:50:41.010Z,13.09
2023-03-17T23:53:07.667Z,13.06
2023-03-17T23:55:35.198Z,13.01
2023-03-17T23:58:02.084Z,12.95
